createdAt,value
2022-12-17T00:01:32.188Z,63.85
2022-12-17T00:06:35.724Z,63.99
2022-12-17T00:11:39.178Z,63.90
2022-12-17T00:16:42.748Z,63.84
2022-12-17T00:21:46.237Z,63.90
2022-12-17T00:26:49.722Z,64.22
2022-12-17T00:31:54.438Z,64.18
2022-12-17T00:37:00.588Z,63.81
2022-12-17T00:42:04.563Z,64.07
2022-12-17T00:47:08.895Z,63.93
2022-12-17T00:52:13.485Z,63.89
2022-12-17T00:57:19.564Z,63.55
2022-12-17T01:02:25.758Z,63.40
2022-12-17T01:07:29.657Z,62.93
2022-12-17T01:12:33.279Z,63.14
2022-12-17T01:17:36.607Z,62.98
2022-12-17T01:22:39.921Z,62.97
2022-12-17T01:27:43.424Z,62.80
2022-12-17T01:32:47.814Z,62.77
2022-12-17T01:37:51.267Z,62.95
2022-12-17T01:42:54.608Z,62.73
2022-12-17T01:48:03.166Z,62.64
2022-12-17T01:53:09.646Z,62.39
2022-12-17T01:58:13.687Z,62.51
2022-12-17T02:03:54.417Z,62.58
2022-12-17T02:09:27.243Z,62.47
2022-12-17T02:14:35.747Z,62.53
2022-12-17T02:19:46.230Z,62.27
2022-12-17T02:25:10.118Z,62.40
2022-12-17T02:30:14.291Z,62.35
2022-12-17T02:35:25.727Z,62.20
2022-12-17T02:40:29.576Z,61.80
2022-12-17T02:45:37.626Z,61.98
2022-12-17T02:50:41.659Z,61.81
2022-12-17T02:55:46.268Z,61.67
2022-12-17T03:00:50.444Z,61.82
2022-12-17T03:05:53.915Z,61.74
2022-12-17T03:10:57.467Z,61.81
2022-12-17T03:16:09.240Z,61.99
2022-12-17T03:21:13.758Z,61.76
2022-12-17T03:26:17.758Z,61.76
2022-12-17T03:31:21.518Z,61.68
2022-12-17T03:36:24.992Z,61.63
2022-12-17T03:41:28.510Z,61.57
2022-12-17T03:46:32.073Z,61.92
2022-12-17T03:51:35.796Z,62.00
2022-12-17T03:56:42.079Z,61.72
2022-12-17T04:01:45.664Z,61.77
2022-12-17T04:06:49.181Z,61.77
2022-12-17T04:11:54.120Z,61.75
2022-12-17T04:16:57.573Z,61.84
2022-12-17T04:22:00.907Z,61.74
2022-12-17T04:27:04.868Z,61.79
2022-12-17T04:32:12.026Z,61.76
2022-12-17T04:37:15.504Z,62.08
2022-12-17T04:42:18.990Z,61.92
2022-12-17T04:47:22.468Z,61.85
2022-12-17T04:52:25.931Z,61.67
2022-12-17T04:57:32.825Z,61.71
2022-12-17T05:02:44.130Z,61.36
2022-12-17T05:07:47.661Z,61.33
2022-12-17T05:13:00.856Z,61.44
2022-12-17T05:18:08.954Z,61.24
2022-12-17T05:23:14.925Z,61.27
2022-12-17T05:28:18.537Z,60.65
2022-12-17T05:33:22.181Z,60.99
2022-12-17T05:38:26.826Z,60.90
2022-12-17T05:43:34.527Z,60.77
2022-12-17T05:48:38.452Z,60.83
2022-12-17T05:53:41.961Z,60.71
2022-12-17T05:58:45.274Z,60.54
2022-12-17T06:03:49.012Z,59.93
2022-12-17T06:08:52.628Z,60.14
2022-12-17T06:13:56.025Z,60.13
2022-12-17T06:18:59.783Z,60.18
2022-12-17T06:24:04.613Z,60.56
2022-12-17T06:29:10.485Z,60.01
2022-12-17T06:34:13.814Z,59.93
2022-12-17T06:39:17.479Z,59.86
2022-12-17T06:44:20.877Z,59.86
2022-12-17T06:49:26.969Z,59.79
2022-12-17T06:54:30.508Z,59.48
2022-12-17T06:59:35.188Z,59.76
2022-12-17T07:04:38.791Z,59.76
2022-12-17T07:09:42.376Z,59.34
2022-12-17T07:14:45.833Z,59.83
2022-12-17T07:19:49.289Z,59.65
2022-12-17T07:24:52.647Z,59.60
2022-12-17T07:29:56.068Z,59.33
2022-12-17T07:34:59.421Z,59.29
2022-12-17T07:40:04.747Z,59.37
2022-12-17T07:45:09.332Z,59.13
2022-12-17T07:50:12.989Z,59.21
2022-12-17T07:55:19.576Z,59.08
2022-12-17T08:00:24.285Z,58.98
2022-12-17T08:05:28.029Z,59.06
2022-12-17T08:10:31.542Z,58.87
2022-12-17T08:15:35.122Z,58.62
2022-12-17T08:20:39.371Z,58.57
2022-12-17T08:25:42.656Z,58.73
2022-12-17T08:30:50.328Z,58.42
2022-12-17T08:35:54.985Z,58.10
2022-12-17T08:41:06.396Z,57.86
2022-12-17T08:46:11.125Z,58.08
2022-12-17T08:51:17.387Z,57.79
2022-12-17T08:56:21.187Z,57.63
2022-12-17T09:01:24.725Z,57.13
2022-12-17T09:06:28.261Z,56.99
2022-12-17T09:11:31.615Z,56.84
2022-12-17T09:16:36.350Z,56.72
2022-12-17T09:21:39.748Z,56.37
2022-12-17T09:26:43.150Z,56.43
2022-12-17T09:31:47.540Z,56.34
2022-12-17T09:36:51.412Z,55.99
2022-12-17T09:42:19.177Z,55.98
2022-12-17T09:47:41.913Z,55.87
2022-12-17T09:52:46.273Z,55.83
2022-12-17T09:57:51.353Z,55.40
2022-12-17T10:02:55.400Z,55.00
2022-12-17T10:08:00.198Z,55.21
2022-12-17T10:13:11.708Z,54.87
2022-12-17T10:18:17.118Z,54.63
2022-12-17T10:23:29.423Z,54.84
2022-12-17T10:28:33.102Z,54.60
2022-12-17T10:33:40.647Z,54.41
2022-12-17T10:38:44.109Z,54.44
2022-12-17T10:43:47.728Z,54.22
2022-12-17T10:49:06.913Z,54.38
2022-12-17T10:54:31.565Z,54.22
2022-12-17T10:59:38.398Z,54.04
2022-12-17T11:04:52.697Z,54.14
2022-12-17T11:10:03.794Z,53.85
2022-12-17T11:15:38.685Z,53.61
2022-12-17T11:20:55.428Z,53.64
2022-12-17T11:26:11.152Z,53.32
2022-12-17T11:31:17.887Z,52.99
2022-12-17T11:36:32.417Z,52.61
2022-12-17T11:42:11.236Z,52.64
2022-12-17T11:47:34.489Z,52.45
2022-12-17T11:52:58.193Z,52.61
2022-12-17T11:58:05.908Z,52.30
2022-12-17T12:03:47.985Z,52.29
2022-12-17T12:09:18.072Z,52.31
2022-12-17T12:15:30.823Z,52.46
2022-12-17T12:20:46.762Z,52.00
2022-12-17T12:26:09.966Z,51.70
2022-12-17T12:31:47.974Z,51.59
2022-12-17T12:36:53.488Z,51.31
2022-12-17T12:42:39.985Z,51.36
2022-12-17T12:47:53.343Z,50.98
2022-12-17T12:52:59.368Z,50.72
2022-12-17T12:58:23.946Z,51.99
2022-12-17T13:03:39.995Z,53.51
2022-12-17T13:08:43.526Z,54.69
2022-12-17T13:13:49.841Z,56.01
2022-12-17T13:19:17.526Z,56.68
2022-12-17T13:24:26.881Z,57.92
2022-12-17T13:29:32.748Z,58.85
2022-12-17T13:34:41.449Z,59.62
2022-12-17T13:39:59.890Z,60.33
2022-12-17T13:45:04.309Z,60.82
2022-12-17T13:50:40.019Z,61.43
2022-12-17T13:55:51.318Z,62.21
2022-12-17T14:01:09.987Z,62.74
2022-12-17T14:06:15.856Z,63.67
2022-12-17T14:11:19.374Z,64.14
2022-12-17T14:16:24.097Z,64.67
2022-12-17T14:21:30.094Z,65.17
2022-12-17T14:26:33.646Z,65.73
2022-12-17T14:31:37.184Z,66.24
2022-12-17T14:36:43.444Z,66.95
2022-12-17T14:41:47.163Z,67.28
2022-12-17T14:47:07.561Z,67.73
2022-12-17T14:52:14.807Z,68.24
2022-12-17T14:57:23.076Z,68.72
2022-12-17T15:02:28.905Z,68.98
2022-12-17T15:07:33.567Z,69.18
2022-12-17T15:12:36.937Z,69.63
2022-12-17T15:17:40.696Z,69.50
2022-12-17T15:22:45.823Z,70.09
2022-12-17T15:27:49.378Z,70.06
2022-12-17T15:32:52.965Z,70.30
2022-12-17T15:37:56.437Z,70.63
2022-12-17T15:43:04.674Z,70.65
2022-12-17T15:48:11.320Z,70.64
2022-12-17T15:53:15.699Z,70.54
2022-12-17T15:58:19.124Z,70.51
2022-12-17T16:03:24.486Z,70.77
2022-12-17T16:08:29.213Z,70.66
2022-12-17T16:13:32.669Z,70.77
2022-12-17T16:18:37.871Z,70.82
2022-12-17T16:23:42.970Z,70.82
2022-12-17T16:28:46.960Z,71.01
2022-12-17T16:33:50.466Z,71.19
2022-12-17T16:38:55.056Z,71.25
2022-12-17T16:43:58.599Z,71.41
2022-12-17T16:49:06.359Z,71.49
2022-12-17T16:54:16.594Z,71.51
2022-12-17T16:59:20.039Z,71.22
2022-12-17T17:04:23.883Z,71.57
2022-12-17T17:09:27.207Z,71.52
2022-12-17T17:14:30.589Z,71.64
2022-12-17T17:19:36.500Z,71.54
2022-12-17T17:24:40.046Z,70.91
2022-12-17T17:29:44.199Z,70.56
2022-12-17T17:34:48.283Z,70.17
2022-12-17T17:39:51.797Z,69.57
2022-12-17T17:44:55.472Z,69.29
2022-12-17T17:50:00.615Z,69.18
2022-12-17T17:55:04.458Z,68.16
2022-12-17T18:00:09.416Z,67.03
2022-12-17T18:05:13.122Z,65.83
2022-12-17T18:10:17.735Z,64.99
2022-12-17T18:15:21.231Z,64.30
2022-12-17T18:20:25.126Z,63.97
2022-12-17T18:25:31.551Z,63.48
2022-12-17T18:30:39.199Z,63.03
2022-12-17T18:35:42.517Z,62.57
2022-12-17T18:40:46.433Z,62.10
2022-12-17T18:45:53.726Z,61.44
2022-12-17T18:51:05.171Z,61.02
2022-12-17T18:56:10.872Z,60.23
2022-12-17T19:01:30.324Z,59.88
2022-12-17T19:06:35.910Z,59.14
2022-12-17T19:11:43.579Z,58.63
2022-12-17T19:16:47.597Z,58.12
2022-12-17T19:21:51.535Z,57.41
2022-12-17T19:26:56.343Z,57.01
2022-12-17T19:32:00.227Z,56.70
2022-12-17T19:37:04.153Z,56.36
2022-12-17T19:42:08.158Z,56.26
2022-12-17T19:47:11.702Z,56.16
2022-12-17T19:52:15.712Z,56.01
2022-12-17T19:57:19.175Z,55.56
2022-12-17T20:02:23.540Z,55.62
2022-12-17T20:07:30.549Z,55.41
2022-12-17T20:12:33.965Z,55.16
2022-12-17T20:17:38.779Z,54.88
2022-12-17T20:22:42.523Z,54.92
2022-12-17T20:27:45.904Z,54.78
2022-12-17T20:32:51.626Z,54.49
2022-12-17T20:37:55.228Z,54.49
2022-12-17T20:43:00.106Z,54.43
2022-12-17T20:48:03.917Z,54.15
2022-12-17T20:53:07.879Z,54.31
2022-12-17T20:58:11.435Z,54.21
2022-12-17T21:03:15.066Z,54.13
2022-12-17T21:08:19.479Z,54.14
2022-12-17T21:13:22.897Z,54.10
2022-12-17T21:18:27.465Z,54.12
2022-12-17T21:23:32.299Z,53.95
2022-12-17T21:28:37.518Z,53.94
2022-12-17T21:33:40.949Z,53.84
2022-12-17T21:38:45.318Z,53.67
2022-12-17T21:43:53.583Z,53.68
2022-12-17T21:48:59.286Z,53.78
2022-12-17T21:54:08.514Z,54.01
2022-12-17T21:59:13.093Z,53.82
2022-12-17T22:04:16.550Z,53.70
2022-12-17T22:09:44.779Z,53.76
2022-12-17T22:14:44.952Z,53.56
2022-12-17T22:19:48.419Z,53.49
2022-12-17T22:24:51.821Z,53.41
2022-12-17T22:29:55.331Z,53.60
2022-12-17T22:36:24.402Z,53.43
2022-12-17T22:44:29.345Z,53.52
2022-12-17T22:45:45.644Z,53.31
2022-12-17T22:50:52.689Z,53.37
2022-12-17T22:56:33.754Z,53.46
2022-12-17T23:01:36.468Z,53.49
2022-12-17T23:06:41.084Z,53.42
2022-12-17T23:11:44.437Z,53.39
2022-12-17T23:16:47.808Z,53.25
2022-12-17T23:21:51.092Z,53.45
2022-12-17T23:26:54.715Z,53.49
2022-12-17T23:31:58.177Z,53.71
2022-12-17T23:37:01.626Z,53.71
2022-12-17T23:42:05.304Z,53.56
2022-12-17T23:47:09.980Z,53.59
2022-12-17T23:52:13.846Z,53.62
2022-12-17T23:57:17.611Z,53.47
